EGPF/GLA METAR and TAF weather

Enter ICAO airport designator
Station Type Date Time Source
EGPF METAR 2021/09/20 05:20 UTC NOAA

EGPF 200520Z AUTO VRB02KT 9999 OVC004 06/06 Q1022


Station Type Date Time Source
EGPF Decoded METAR 2021/09/20 05:20 UTC NOAA

Glasgow Airport, United Kingdom (EGPF) 55-52N 004-26W 0M
Sep 20, 2021 - 01:20 AM EDT / 2021.09.20 0520 UTC
Wind: Variable at 2 MPH (2 KT):0
Visibility: greater than 7 mile(s):0
Sky conditions: overcast
Temperature: 42 F (6 C)
Dew Point: 42 F (6 C)
Relative Humidity: 100%
Pressure (altimeter): 30.18 in. Hg (1022 hPa)
ob: EGPF 200520Z AUTO VRB02KT 9999 OVC004 06/06 Q1022
cycle: 5

Station Type Date Time Source
EGPF TAF 2021/09/20 06:09 UTC NOAA

TAF EGPF 200459Z 2006/2106 VRB03KT 0300 FG VV///
BECMG 2006/2009 9999 NSW SCT015 PROB30
TEMPO 2009/2014 BKN010 PROB30
TEMPO 2009/2011 4000 BR
BECMG 2010/2013 24010KT
TEMPO 2014/2020 BKN012 PROB30
TEMPO 2014/2020 8000 -RA BKN008
BECMG 2021/2024 VRB03KT

Example: see airport list